Time;durP1;ratioP1;P1;durP2;ratioP2;P2;SDS_P1;SDS_P2;PMS_P1;PMS_P2;Temp;Humidity;BMP_temperature;BMP_pressure;BME280_temperature;BME280_humidity;BME280_pressure;Samples;Min_cycle;Max_cycle;Signal;HPM_P1;HPM_P2
2022/06/10 00:00:45;;;;;;;5.43;4.93;;;17.00;99.90;;;;;;5086684;28;20459;-83
2022/06/10 00:03:14;;;;;;;6.60;5.60;;;17.20;99.90;;;;;;5089995;28;20512;-82
2022/06/10 00:05:44;;;;;;;7.10;5.07;;;17.20;99.90;;;;;;5096160;28;20442;-83
2022/06/10 00:08:13;;;;;;;6.40;5.63;;;17.10;99.90;;;;;;5090013;28;20478;-83
2022/06/10 00:10:41;;;;;;;5.73;5.33;;;17.10;99.90;;;;;;5095501;28;20462;-83
2022/06/10 00:13:07;;;;;;;5.60;5.10;;;17.30;99.90;;;;;;5094435;28;20465;-82
2022/06/10 00:15:36;;;;;;;9.30;6.37;;;17.30;99.90;;;;;;5092039;28;20446;-83
2022/06/10 00:18:03;;;;;;;6.50;5.83;;;17.20;99.90;;;;;;5084706;28;20488;-83
2022/06/10 00:20:39;;;;;;;10.07;6.53;;;17.10;99.90;;;;;;5095864;28;20529;-82
2022/06/10 00:23:06;;;;;;;8.93;6.27;;;16.90;99.90;;;;;;5095319;28;20443;-83
2022/06/10 00:25:33;;;;;;;6.03;5.53;;;16.90;99.90;;;;;;5087790;28;20463;-83
2022/06/10 00:28:00;;;;;;;6.90;6.30;;;16.90;99.90;;;;;;5099574;28;20999;-83
2022/06/10 00:30:29;;;;;;;7.77;7.00;;;16.70;99.90;;;;;;5101693;28;20475;-81
2022/06/10 00:32:57;;;;;;;6.00;5.40;;;16.60;99.90;;;;;;5110718;28;20419;-83
2022/06/10 00:35:25;;;;;;;6.53;5.70;;;16.80;99.90;;;;;;5113182;28;20472;-84
2022/06/10 00:37:52;;;;;;;6.50;5.97;;;16.80;99.90;;;;;;5107323;28;20435;-83
2022/06/10 00:40:25;;;;;;;7.87;5.97;;;16.70;99.90;;;;;;5096130;28;20478;-82
2022/06/10 00:42:56;;;;;;;6.13;5.57;;;16.60;99.90;;;;;;5092298;28;20443;-82
2022/06/10 00:45:57;;;;;;;8.20;5.60;;;16.70;99.90;;;;;;5094072;28;21229;-82
2022/06/10 00:48:42;;;;;;;7.23;6.40;;;16.60;99.90;;;;;;5093698;28;20477;-82
2022/06/10 00:51:28;;;;;;;6.13;5.63;;;16.50;99.90;;;;;;5080504;28;20478;-82
2022/06/10 00:54:16;;;;;;;5.23;4.73;;;16.30;99.90;;;;;;5094411;28;20538;-82
2022/06/10 00:56:48;;;;;;;5.50;4.70;;;16.20;99.90;;;;;;5093769;28;20445;-83
2022/06/10 00:59:22;;;;;;;5.30;4.90;;;16.20;99.90;;;;;;5096811;28;20458;-82
2022/06/10 01:01:53;;;;;;;6.33;5.20;;;16.20;99.90;;;;;;5096106;28;20537;-82
2022/06/10 01:04:20;;;;;;;8.00;5.13;;;16.40;99.90;;;;;;5102760;28;20446;-83
2022/06/10 01:06:47;;;;;;;5.93;5.33;;;16.40;99.90;;;;;;5097892;28;21042;-83
2022/06/10 01:09:14;;;;;;;5.80;5.00;;;16.30;99.90;;;;;;5092375;28;20489;-83
2022/06/10 01:11:53;;;;;;;6.40;5.00;;;16.20;99.90;;;;;;5102915;28;20462;-82
2022/06/10 01:14:42;;;;;;;5.63;5.10;;;16.10;99.90;;;;;;5107600;28;20453;-82
2022/06/10 01:17:42;;;;;;;6.27;4.70;;;16.20;99.90;;;;;;5087911;28;20455;-82
2022/06/10 01:20:36;;;;;;;6.50;5.87;;;16.30;99.90;;;;;;5094727;28;20478;-83
2022/06/10 01:23:32;;;;;;;6.43;5.80;;;16.60;99.90;;;;;;5082571;28;20446;-82
2022/06/10 01:26:15;;;;;;;6.43;5.93;;;16.30;99.90;;;;;;5090144;28;20439;-82
2022/06/10 01:29:20;;;;;;;6.73;5.87;;;16.20;99.90;;;;;;5091866;28;20474;-82
2022/06/10 01:32:00;;;;;;;10.00;6.53;;;16.10;99.90;;;;;;5090189;28;20466;-83
2022/06/10 01:34:48;;;;;;;7.77;7.10;;;16.10;99.90;;;;;;5089413;28;22026;-82
2022/06/10 01:37:28;;;;;;;6.90;6.13;;;16.00;99.90;;;;;;5096229;28;20822;-82
2022/06/10 01:40:07;;;;;;;6.77;6.07;;;16.00;99.90;;;;;;5086934;28;20458;-83
2022/06/10 01:42:39;;;;;;;7.00;6.30;;;16.10;99.90;;;;;;5094633;28;20474;-83
2022/06/10 01:45:18;;;;;;;5.80;5.40;;;16.10;99.90;;;;;;5096324;28;20447;-82
2022/06/10 01:47:54;;;;;;;6.80;6.20;;;15.90;99.90;;;;;;5079008;28;20876;-84
2022/06/10 01:50:27;;;;;;;6.40;5.90;;;15.80;99.90;;;;;;5096783;28;21001;-84
2022/06/10 01:53:18;;;;;;;6.67;6.00;;;15.80;99.90;;;;;;5095585;28;20461;-84
2022/06/10 01:55:53;;;;;;;5.67;5.27;;;15.80;99.90;;;;;;5095280;28;20455;-84
2022/06/10 01:58:36;;;;;;;6.80;5.50;;;15.80;99.90;;;;;;5097552;28;20446;-83
2022/06/10 02:01:08;;;;;;;5.90;5.40;;;15.90;99.90;;;;;;5088684;28;20474;-84
2022/06/10 02:04:02;;;;;;;8.20;6.00;;;15.90;99.90;;;;;;5097625;28;20443;-84
2022/06/10 02:06:35;;;;;;;7.00;6.40;;;15.80;99.90;;;;;;5067450;28;20454;-83
2022/06/10 02:09:10;;;;;;;6.70;6.00;;;15.70;99.90;;;;;;5094898;28;20471;-84
2022/06/10 02:11:42;;;;;;;6.63;6.13;;;15.60;99.90;;;;;;5089333;28;20462;-84
2022/06/10 02:14:37;;;;;;;7.50;6.60;;;15.60;99.90;;;;;;5096780;28;20443;-83
2022/06/10 02:17:07;;;;;;;6.33;5.83;;;15.50;99.90;;;;;;5103392;28;20514;-84
2022/06/10 02:19:42;;;;;;;8.40;5.43;;;15.40;99.90;;;;;;5109446;28;20445;-83
2022/06/10 02:22:24;;;;;;;6.63;6.00;;;15.30;99.90;;;;;;5114831;28;20441;-82
2022/06/10 02:25:03;;;;;;;6.57;5.97;;;15.20;99.90;;;;;;5099786;28;20450;-83
2022/06/10 02:27:36;;;;;;;6.83;6.17;;;15.20;99.90;;;;;;5099202;28;20443;-83
2022/06/10 02:30:17;;;;;;;9.30;8.00;;;15.10;99.90;;;;;;5091916;28;20466;-83
2022/06/10 02:32:47;;;;;;;8.30;7.50;;;15.10;99.90;;;;;;5099195;28;20435;-81
2022/06/10 02:35:16;;;;;;;9.00;8.13;;;15.10;99.90;;;;;;5095420;28;20450;-82
2022/06/10 02:38:06;;;;;;;7.97;7.17;;;15.10;99.90;;;;;;5098054;28;20462;-84
2022/06/10 02:41:08;;;;;;;6.63;6.00;;;15.10;99.90;;;;;;5088755;28;20473;-83
2022/06/10 02:43:42;;;;;;;7.30;6.13;;;15.00;99.90;;;;;;5089052;28;20462;-82
2022/06/10 02:46:18;;;;;;;8.67;6.73;;;15.00;99.90;;;;;;5100770;28;20450;-83
2022/06/10 02:49:08;;;;;;;7.80;7.00;;;15.10;99.90;;;;;;5099235;28;20522;-83
2022/06/10 02:51:38;;;;;;;5.70;5.30;;;15.00;99.90;;;;;;5099801;28;20776;-82
2022/06/10 02:54:15;;;;;;;6.50;6.00;;;15.40;99.90;;;;;;5100714;28;20446;-83
2022/06/10 02:56:47;;;;;;;5.93;5.53;;;15.40;99.90;;;;;;5085546;28;20427;-83
2022/06/10 03:02:22;;;;;;;8.37;6.90;;;15.30;99.90;;;;;;5113399;28;20415;-82
2022/06/10 03:05:18;;;;;;;7.13;6.43;;;15.20;99.90;;;;;;5114918;28;20466;-83
2022/06/10 03:08:09;;;;;;;8.20;7.23;;;15.10;99.90;;;;;;5110260;28;20461;-82
2022/06/10 03:11:06;;;;;;;11.53;6.50;;;15.10;99.90;;;;;;5117621;28;20461;-83
2022/06/10 03:14:08;;;;;;;7.17;6.67;;;15.10;99.90;;;;;;5117277;28;20434;-82
2022/06/10 03:17:08;;;;;;;7.43;6.43;;;15.00;99.90;;;;;;5096585;28;20442;-83
2022/06/10 03:20:13;;;;;;;6.73;6.10;;;14.90;99.90;;;;;;5093059;28;20533;-83
2022/06/10 03:23:22;;;;;;;6.70;6.10;;;14.90;99.90;;;;;;5093100;28;20454;-82
2022/06/10 03:26:16;;;;;;;9.37;6.30;;;14.90;99.90;;;;;;5092975;28;20431;-82
2022/06/10 03:28:54;;;;;;;6.83;5.90;;;14.80;99.90;;;;;;5097228;28;20578;-82
2022/06/10 03:31:44;;;;;;;6.90;6.30;;;14.80;99.90;;;;;;5092899;28;20474;-83
2022/06/10 03:34:19;;;;;;;7.70;7.00;;;14.70;99.90;;;;;;5085744;28;20538;-83
2022/06/10 03:36:55;;;;;;;6.80;6.20;;;14.70;99.90;;;;;;5094054;28;20460;-83
2022/06/10 03:39:24;;;;;;;7.13;6.43;;;14.70;99.90;;;;;;5092918;28;20455;-83
2022/06/10 03:42:17;;;;;;;7.00;6.33;;;14.70;99.90;;;;;;5083452;28;21000;-82
2022/06/10 03:44:52;;;;;;;8.83;6.23;;;14.70;99.90;;;;;;5082235;28;20518;-83
2022/06/10 03:47:41;;;;;;;7.23;6.63;;;14.70;99.90;;;;;;5087465;28;20456;-83
2022/06/10 03:50:12;;;;;;;6.53;6.03;;;14.70;99.90;;;;;;5101936;28;20478;-82
2022/06/10 03:52:42;;;;;;;6.97;6.33;;;14.60;99.90;;;;;;5091839;28;21072;-83
2022/06/10 03:55:14;;;;;;;7.40;6.57;;;14.60;99.90;;;;;;5091810;28;20455;-83
2022/06/10 03:57:41;;;;;;;6.43;5.93;;;14.60;99.90;;;;;;5092581;28;20451;-83
2022/06/10 04:00:08;;;;;;;8.80;7.03;;;14.60;99.90;;;;;;5093811;28;20474;-81
2022/06/10 04:02:37;;;;;;;6.60;5.90;;;14.60;99.90;;;;;;5094253;28;20499;-83
2022/06/10 04:05:05;;;;;;;6.83;6.23;;;14.60;99.90;;;;;;5093516;28;20451;-82
2022/06/10 04:07:31;;;;;;;8.07;7.13;;;14.70;99.90;;;;;;5086394;28;20516;-83
2022/06/10 04:09:58;;;;;;;7.57;6.70;;;14.80;99.90;;;;;;5092557;28;20986;-82
2022/06/10 04:12:26;;;;;;;7.70;5.93;;;14.80;99.90;;;;;;5093211;28;20443;-83
2022/06/10 04:14:53;;;;;;;6.70;6.10;;;14.90;99.90;;;;;;5093239;28;20477;-83
2022/06/10 04:17:24;;;;;;;6.93;6.20;;;15.10;99.90;;;;;;5078019;28;20447;-83
2022/06/10 04:19:51;;;;;;;8.90;7.40;;;15.10;99.90;;;;;;5091128;28;20818;-83
2022/06/10 04:22:18;;;;;;;7.70;7.10;;;15.20;99.90;;;;;;5093828;28;20515;-82
2022/06/10 04:24:45;;;;;;;7.00;6.40;;;15.10;99.90;;;;;;5089695;28;20454;-83
2022/06/10 04:27:11;;;;;;;6.47;5.87;;;15.10;99.90;;;;;;5093313;28;20443;-83
2022/06/10 04:29:38;;;;;;;6.67;6.07;;;15.00;99.90;;;;;;5092918;28;20478;-83
2022/06/10 04:32:05;;;;;;;7.43;6.70;;;15.10;99.90;;;;;;5094122;28;20459;-83
2022/06/10 04:34:32;;;;;;;8.43;6.57;;;15.20;99.90;;;;;;5098988;28;21074;-84
2022/06/10 04:36:58;;;;;;;6.73;6.10;;;15.20;99.90;;;;;;5097541;28;20453;-83
2022/06/10 04:39:25;;;;;;;7.47;6.47;;;15.20;99.90;;;;;;5098672;28;20454;-83
2022/06/10 04:41:52;;;;;;;10.20;8.70;;;15.20;99.90;;;;;;5092004;28;20478;-84
2022/06/10 04:44:18;;;;;;;7.53;5.83;;;15.10;99.90;;;;;;5092642;28;20430;-83
2022/06/10 04:46:45;;;;;;;6.47;5.93;;;15.20;99.90;;;;;;5098908;28;20477;-83
2022/06/10 04:49:12;;;;;;;6.43;5.50;;;15.30;99.90;;;;;;5102258;28;20478;-83
2022/06/10 04:51:38;;;;;;;6.77;6.10;;;15.20;99.90;;;;;;5091180;28;20496;-82
2022/06/10 04:54:06;;;;;;;7.10;6.50;;;15.40;99.90;;;;;;5095490;28;20854;-82
2022/06/10 04:56:37;;;;;;;7.13;6.40;;;15.50;99.90;;;;;;5103383;28;20445;-83
2022/06/10 04:59:04;;;;;;;11.73;6.10;;;15.50;99.90;;;;;;5098369;28;20466;-82
2022/06/10 05:01:31;;;;;;;6.63;6.10;;;15.40;99.90;;;;;;5087884;28;20471;-82
2022/06/10 05:03:58;;;;;;;8.30;6.53;;;15.60;99.90;;;;;;5094823;28;20526;-82
2022/06/10 05:06:24;;;;;;;11.03;6.87;;;15.70;99.90;;;;;;5101405;28;20430;-83
2022/06/10 05:08:53;;;;;;;9.00;5.67;;;15.70;99.90;;;;;;5103598;28;20527;-82
2022/06/10 05:11:20;;;;;;;6.13;5.57;;;15.90;99.90;;;;;;5082074;28;20467;-83
2022/06/10 05:13:46;;;;;;;8.47;5.80;;;15.90;99.90;;;;;;5096200;28;20453;-83
2022/06/10 05:16:13;;;;;;;8.77;5.60;;;15.90;99.90;;;;;;5093901;28;20462;-83
2022/06/10 05:18:40;;;;;;;7.20;6.40;;;15.80;99.90;;;;;;5095430;28;20541;-83
2022/06/10 05:21:08;;;;;;;6.83;5.93;;;15.80;99.90;;;;;;5097834;28;20473;-84
2022/06/10 05:23:34;;;;;;;6.40;5.90;;;15.70;99.90;;;;;;5098046;28;20529;-83
2022/06/10 05:26:02;;;;;;;6.60;5.53;;;15.80;99.90;;;;;;5097625;28;20457;-83
2022/06/10 05:28:34;;;;;;;10.50;6.00;;;15.70;99.90;;;;;;5096572;28;20459;-83
2022/06/10 05:31:00;;;;;;;6.20;5.67;;;15.70;99.90;;;;;;5098530;28;20463;-84
2022/06/10 05:34:44;;;;;;;7.50;6.07;;;15.80;99.90;;;;;;5099332;28;20446;-83
2022/06/10 05:36:13;;;;;;;6.33;5.80;;;15.90;99.90;;;;;;5096962;28;20801;-83
2022/06/10 05:38:40;;;;;;;5.93;5.33;;;16.00;99.90;;;;;;5090307;28;20453;-83
2022/06/10 05:43:53;;;;;;;8.03;5.63;;;16.40;99.90;;;;;;5093058;28;20509;-83
2022/06/10 05:46:20;;;;;;;5.63;4.90;;;16.50;99.90;;;;;;5094352;28;20466;-82
2022/06/10 05:48:48;;;;;;;6.97;5.80;;;16.60;99.90;;;;;;5092807;28;20478;-83
2022/06/10 05:51:15;;;;;;;10.37;5.53;;;16.60;99.90;;;;;;5095567;28;20467;-83
2022/06/10 05:53:41;;;;;;;7.00;5.17;;;16.70;99.90;;;;;;5101621;28;20572;-83
2022/06/10 05:56:08;;;;;;;5.53;4.90;;;16.70;99.90;;;;;;5099067;28;20442;-83
2022/06/10 05:58:35;;;;;;;5.60;4.53;;;16.80;99.90;;;;;;5092348;28;20456;-84
2022/06/10 06:01:07;;;;;;;6.03;4.30;;;16.90;99.90;;;;;;5096559;28;20462;-83
2022/06/10 06:03:35;;;;;;;5.40;4.90;;;17.00;99.90;;;;;;5097705;28;21029;-83
2022/06/10 06:06:02;;;;;;;5.23;4.73;;;17.10;99.90;;;;;;5098075;28;20826;-83
2022/06/10 06:08:28;;;;;;;5.50;4.60;;;17.30;99.90;;;;;;5096444;28;20488;-82
2022/06/10 06:10:57;;;;;;;6.90;4.60;;;17.30;99.90;;;;;;5097338;28;20464;-83
2022/06/10 06:13:24;;;;;;;5.23;4.60;;;17.30;99.90;;;;;;5088231;28;20561;-83
2022/06/10 06:15:50;;;;;;;4.80;4.40;;;17.00;99.90;;;;;;5098175;28;20454;-83
2022/06/10 06:18:20;;;;;;;5.60;4.03;;;17.20;99.90;;;;;;5076347;28;20446;-82
2022/06/10 06:20:46;;;;;;;8.20;4.67;;;17.20;99.90;;;;;;5095302;28;20490;-82
2022/06/10 06:23:13;;;;;;;6.73;4.60;;;17.00;99.90;;;;;;5107584;28;20442;-80
2022/06/10 06:25:40;;;;;;;4.80;4.30;;;17.20;99.90;;;;;;5111360;28;20442;-81
2022/06/10 06:28:07;;;;;;;6.27;4.63;;;17.10;99.90;;;;;;5103397;28;20447;-81
2022/06/10 06:30:36;;;;;;;5.67;4.93;;;16.90;99.90;;;;;;5106044;28;20482;-83
2022/06/10 06:33:08;;;;;;;5.00;4.50;;;17.00;99.90;;;;;;5094563;28;20450;-80
2022/06/10 06:35:37;;;;;;;9.60;5.83;;;17.20;99.90;;;;;;5097744;28;20443;-83
2022/06/10 06:38:05;;;;;;;8.67;5.67;;;17.20;99.90;;;;;;5097244;28;20454;-83
2022/06/10 06:40:32;;;;;;;8.03;4.67;;;17.40;99.90;;;;;;5100850;28;20494;-82
2022/06/10 06:42:59;;;;;;;5.83;4.47;;;17.40;99.90;;;;;;5099812;28;20868;-83
2022/06/10 06:45:34;;;;;;;10.47;5.23;;;17.30;99.90;;;;;;5097636;28;20940;-81
2022/06/10 06:48:09;;;;;;;4.83;4.37;;;17.30;99.90;;;;;;5091444;28;21097;-82
2022/06/10 06:50:41;;;;;;;5.60;5.10;;;17.50;99.90;;;;;;5104598;28;20474;-83
2022/06/10 06:53:08;;;;;;;5.80;4.47;;;17.50;99.90;;;;;;5099942;28;20434;-83
2022/06/10 06:55:36;;;;;;;9.97;5.30;;;17.50;99.90;;;;;;5098899;28;20453;-83
2022/06/10 06:58:05;;;;;;;5.10;4.60;;;17.60;99.90;;;;;;5093604;28;20451;-83
2022/06/10 07:00:32;;;;;;;5.60;5.00;;;17.60;99.90;;;;;;5089316;28;20497;-84
2022/06/10 07:02:58;;;;;;;7.60;4.80;;;17.70;99.90;;;;;;5090096;28;20452;-84
2022/06/10 07:05:25;;;;;;;7.83;4.63;;;17.60;99.90;;;;;;5089489;28;20451;-83
2022/06/10 07:07:52;;;;;;;6.50;4.70;;;17.70;99.90;;;;;;5096007;28;20533;-84
2022/06/10 07:10:21;;;;;;;9.87;4.77;;;17.70;99.90;;;;;;5095876;28;20561;-83
2022/06/10 07:12:48;;;;;;;5.67;4.97;;;17.80;99.90;;;;;;5087132;28;20524;-83
2022/06/10 07:15:15;;;;;;;4.50;4.10;;;17.70;99.90;;;;;;5087627;28;20450;-82
2022/06/10 07:17:42;;;;;;;8.70;5.53;;;17.60;99.90;;;;;;5087005;28;20471;-83
2022/06/10 07:20:17;;;;;;;6.20;4.43;;;17.80;99.90;;;;;;5088073;28;20473;-83
2022/06/10 07:22:44;;;;;;;7.33;4.80;;;17.90;99.90;;;;;;5100156;28;20453;-83
2022/06/10 07:25:12;;;;;;;5.10;4.37;;;17.90;99.90;;;;;;5099359;28;20485;-83
2022/06/10 07:27:39;;;;;;;6.00;4.20;;;18.10;99.90;;;;;;5096082;28;20871;-83
2022/06/10 07:30:07;;;;;;;5.83;4.70;;;18.20;99.90;;;;;;5087252;22;20498;-82
2022/06/10 07:32:36;;;;;;;5.53;3.80;;;18.40;99.90;;;;;;5050823;28;20455;-82
2022/06/10 07:35:06;;;;;;;4.10;3.70;;;18.50;99.70;;;;;;5054817;28;20460;-81
2022/06/10 07:37:57;;;;;;;6.23;4.87;;;18.50;99.70;;;;;;5055378;28;20432;-83
2022/06/10 07:43:36;;;;;;;10.63;5.27;;;18.50;99.90;;;;;;5072334;28;20460;-82
2022/06/10 07:46:04;;;;;;;6.33;4.83;;;18.60;99.50;;;;;;5075558;28;20943;-83
2022/06/10 07:48:31;;;;;;;5.83;4.60;;;18.70;99.70;;;;;;5072965;28;20455;-82
2022/06/10 07:50:57;;;;;;;7.57;4.63;;;18.80;99.20;;;;;;5076707;28;20494;-83
2022/06/10 07:53:24;;;;;;;6.43;4.13;;;18.80;99.20;;;;;;5076576;28;20446;-83
2022/06/10 07:55:51;;;;;;;5.53;4.60;;;19.00;98.80;;;;;;5077396;28;20945;-84
2022/06/10 07:58:18;;;;;;;6.10;4.00;;;19.00;98.60;;;;;;5074618;28;20935;-83
2022/06/10 08:00:45;;;;;;;5.63;4.63;;;19.40;98.40;;;;;;5076014;28;20475;-84
2022/06/10 08:03:13;;;;;;;3.37;2.83;;;19.60;97.60;;;;;;5075630;28;20459;-84
2022/06/10 08:05:41;;;;;;;11.10;3.60;;;19.90;96.90;;;;;;5073047;28;20469;-84
2022/06/10 08:08:10;;;;;;;4.80;4.00;;;20.40;95.50;;;;;;5071729;28;20459;-84
2022/06/10 08:10:37;;;;;;;4.10;3.67;;;20.60;94.90;;;;;;5079632;28;20530;-83
2022/06/10 08:13:06;;;;;;;5.57;3.20;;;20.80;94.70;;;;;;5080522;28;20451;-82
2022/06/10 08:15:34;;;;;;;5.70;3.30;;;20.90;93.60;;;;;;5076917;28;20452;-82
2022/06/10 08:18:02;;;;;;;4.73;3.37;;;20.80;93.30;;;;;;5074201;28;20448;-82
2022/06/10 08:23:24;;;;;;;4.00;3.30;;;20.80;93.10;;;;;;5064332;28;20447;-83
2022/06/10 08:25:52;;;;;;;4.53;3.13;;;20.70;93.60;;;;;;5074783;28;20478;-83
2022/06/10 08:28:22;;;;;;;11.90;3.40;;;21.00;92.80;;;;;;5080341;28;20447;-83
2022/06/10 08:30:52;;;;;;;5.57;3.40;;;21.00;93.00;;;;;;5079925;28;20482;-82
2022/06/10 08:33:19;;;;;;;3.30;3.00;;;21.00;93.10;;;;;;5077198;28;20458;-83
2022/06/10 08:35:48;;;;;;;7.00;4.00;;;20.80;93.10;;;;;;5085613;28;20444;-81
2022/06/10 08:38:16;;;;;;;4.20;2.83;;;21.10;92.80;;;;;;5065895;28;20466;-83
2022/06/10 08:41:13;;;;;;;2.87;2.60;;;21.40;92.50;;;;;;5077966;28;21044;-82
2022/06/10 08:44:12;;;;;;;3.00;2.60;;;21.60;91.40;;;;;;5074582;28;20455;-82
2022/06/10 08:47:17;;;;;;;6.70;2.90;;;21.50;91.30;;;;;;5076875;28;20545;-83
2022/06/10 08:49:56;;;;;;;4.43;2.13;;;21.40;91.90;;;;;;5071159;28;20507;-81
2022/06/10 08:52:36;;;;;;;4.27;2.17;;;21.10;90.40;;;;;;5072599;28;20459;-83
2022/06/10 08:55:12;;;;;;;3.40;1.90;;;21.10;90.30;;;;;;5088420;28;20448;-84
2022/06/10 08:57:45;;;;;;;6.33;1.87;;;21.40;90.10;;;;;;5085600;28;20455;-83
2022/06/10 09:00:23;;;;;;;6.23;2.37;;;22.20;88.30;;;;;;5089133;28;20484;-82
2022/06/10 09:03:06;;;;;;;5.60;2.13;;;22.60;84.50;;;;;;5088039;28;20501;-84
2022/06/10 09:05:37;;;;;;;3.17;1.87;;;23.30;82.30;;;;;;5085425;28;20458;-84
2022/06/10 09:08:12;;;;;;;2.87;1.43;;;23.00;82.10;;;;;;5079136;28;20455;-84
2022/06/10 09:10:56;;;;;;;2.60;1.70;;;23.80;79.70;;;;;;5080956;28;20514;-82
2022/06/10 09:13:46;;;;;;;4.90;3.60;;;24.00;78.80;;;;;;5081239;28;20984;-85
2022/06/10 09:16:16;;;;;;;7.33;2.27;;;23.60;79.60;;;;;;5085715;28;20797;-83
2022/06/10 09:19:10;;;;;;;3.87;1.67;;;23.20;77.50;;;;;;5083307;28;20524;-82
2022/06/10 09:21:59;;;;;;;4.27;1.37;;;23.00;78.10;;;;;;5083952;28;20471;-80
2022/06/10 09:24:38;;;;;;;5.80;2.43;;;23.00;77.40;;;;;;5080392;28;20790;-81
2022/06/10 09:27:26;;;;;;;3.13;1.30;;;22.50;79.20;;;;;;5075415;28;20455;-84
2022/06/10 09:29:53;;;;;;;3.20;1.93;;;22.50;79.90;;;;;;5076908;28;20486;-83
2022/06/10 09:32:32;;;;;;;5.10;1.77;;;23.10;77.90;;;;;;5077296;28;20941;-82
2022/06/10 09:35:30;;;;;;;3.30;1.60;;;23.40;77.70;;;;;;5074904;28;20861;-81
2022/06/10 09:38:14;;;;;;;3.90;1.57;;;24.30;75.10;;;;;;5076607;28;20454;-83
2022/06/10 09:41:02;;;;;;;4.23;1.50;;;23.80;75.20;;;;;;5081198;28;20965;-83
2022/06/10 09:44:01;;;;;;;2.97;1.87;;;23.40;77.40;;;;;;5072557;28;20450;-82
2022/06/10 09:46:39;;;;;;;3.83;1.87;;;23.00;78.30;;;;;;5094582;28;20462;-83
2022/06/10 09:49:12;;;;;;;2.90;1.70;;;22.30;80.80;;;;;;5079504;28;20454;-82
2022/06/10 09:51:58;;;;;;;5.77;2.13;;;22.00;83.50;;;;;;5076643;28;20567;-83
2022/06/10 09:54:38;;;;;;;3.57;1.80;;;21.80;85.40;;;;;;5069429;28;20454;-83
2022/06/10 09:57:47;;;;;;;6.37;1.80;;;21.60;86.50;;;;;;5073057;28;20455;-83
2022/06/10 10:00:20;;;;;;;4.93;2.40;;;21.60;87.20;;;;;;5081075;28;20620;-84
2022/06/10 10:03:14;;;;;;;8.93;3.17;;;21.60;87.50;;;;;;5081118;28;20456;-82
2022/06/10 10:06:05;;;;;;;4.37;1.50;;;21.70;87.70;;;;;;5064207;28;20482;-83
2022/06/10 10:08:36;;;;;;;5.40;2.10;;;21.80;87.60;;;;;;5077971;28;20456;-82
2022/06/10 10:11:22;;;;;;;6.13;1.80;;;21.90;87.10;;;;;;5072448;28;20483;-83
2022/06/10 10:14:30;;;;;;;2.53;2.10;;;21.90;87.50;;;;;;5076345;28;20939;-81
2022/06/10 10:17:42;;;;;;;6.87;1.90;;;21.90;86.90;;;;;;5077263;28;20444;-83
2022/06/10 10:20:47;;;;;;;5.47;1.83;;;22.00;87.20;;;;;;5075508;28;20486;-84
2022/06/10 10:23:32;;;;;;;4.93;1.57;;;23.40;82.90;;;;;;5058133;28;20448;-82
2022/06/10 10:26:20;;;;;;;4.33;1.43;;;23.90;79.30;;;;;;5076681;28;20455;-83
2022/06/10 10:28:53;;;;;;;2.13;1.33;;;23.30;80.50;;;;;;5073618;28;20474;-84
2022/06/10 10:31:32;;;;;;;3.40;1.83;;;22.90;82.50;;;;;;5077146;28;20499;-82
2022/06/10 10:34:03;;;;;;;5.20;2.20;;;22.60;83.80;;;;;;5075991;28;20454;-83
2022/06/10 10:36:44;;;;;;;2.77;1.70;;;22.50;84.60;;;;;;5070205;28;20456;-82
2022/06/10 10:39:25;;;;;;;4.60;1.60;;;22.60;84.60;;;;;;5070482;28;20436;-83
2022/06/10 10:41:54;;;;;;;5.63;2.00;;;22.40;84.00;;;;;;5075920;28;20469;-82
2022/06/10 10:44:25;;;;;;;2.57;1.30;;;22.60;83.90;;;;;;5078476;28;20473;-82
2022/06/10 10:47:09;;;;;;;3.93;1.73;;;22.50;84.10;;;;;;5078353;28;20458;-82
2022/06/10 10:50:09;;;;;;;4.60;2.10;;;23.20;82.20;;;;;;5082225;28;20514;-84
2022/06/10 10:52:36;;;;;;;2.97;1.43;;;23.10;81.90;;;;;;5078640;28;20481;-81
2022/06/10 10:55:11;;;;;;;3.37;1.60;;;23.00;82.80;;;;;;5072418;28;20448;-81
2022/06/10 10:57:42;;;;;;;5.87;1.40;;;22.90;82.90;;;;;;5078336;28;20471;-81
2022/06/10 11:00:15;;;;;;;3.80;1.20;;;22.80;83.60;;;;;;5076816;28;20478;-81
2022/06/10 11:02:52;;;;;;;3.13;1.60;;;22.60;83.80;;;;;;5079849;28;20459;-80
2022/06/10 11:05:36;;;;;;;2.50;1.10;;;22.70;84.20;;;;;;5080248;28;20434;-83
2022/06/10 11:08:12;;;;;;;1.43;1.00;;;23.50;81.30;;;;;;5076112;28;20507;-83
2022/06/10 11:10:53;;;;;;;3.37;1.63;;;23.60;80.00;;;;;;5071767;28;20542;-82
2022/06/10 11:13:34;;;;;;;6.03;1.80;;;23.30;81.10;;;;;;5080568;28;20443;-82
2022/06/10 11:16:26;;;;;;;1.73;1.00;;;23.20;81.40;;;;;;5075710;28;20530;-82
2022/06/10 11:19:02;;;;;;;3.00;1.17;;;23.40;81.00;;;;;;5071620;28;20815;-82
2022/06/10 11:21:29;;;;;;;4.00;1.67;;;23.90;78.30;;;;;;5070712;28;20479;-82
2022/06/10 11:23:58;;;;;;;2.83;1.77;;;23.80;77.80;;;;;;5079516;28;20530;-82
2022/06/10 11:26:26;;;;;;;3.70;1.43;;;23.70;77.30;;;;;;5080780;28;20472;-82
2022/06/10 11:29:03;;;;;;;3.60;1.70;;;23.80;77.90;;;;;;5072748;28;20456;-83
2022/06/10 11:31:40;;;;;;;2.80;0.93;;;23.80;78.40;;;;;;5072265;28;20483;-82
2022/06/10 11:34:21;;;;;;;2.27;1.37;;;24.40;76.20;;;;;;5078302;28;20517;-82
2022/06/10 11:36:53;;;;;;;5.13;1.30;;;24.00;76.40;;;;;;5075040;28;20447;-82
2022/06/10 11:39:31;;;;;;;2.47;1.27;;;24.30;75.20;;;;;;5075761;28;20483;-82
2022/06/10 11:42:24;;;;;;;1.93;1.43;;;23.90;76.60;;;;;;5074028;28;20501;-81
2022/06/10 11:45:00;;;;;;;2.83;1.30;;;24.10;75.60;;;;;;5071358;28;20641;-82
2022/06/10 11:47:36;;;;;;;4.40;1.27;;;23.80;76.10;;;;;;5075884;28;20821;-82
2022/06/10 11:50:19;;;;;;;5.17;1.33;;;23.70;77.10;;;;;;5064321;28;20532;-83
2022/06/10 11:52:59;;;;;;;2.50;1.67;;;23.50;78.20;;;;;;5072880;28;20830;-81
2022/06/10 11:55:30;;;;;;;1.30;1.20;;;23.20;80.30;;;;;;5078363;28;20447;-83
2022/06/10 12:01:22;;;;;;;1.30;1.03;;;24.10;77.00;;;;;;5080672;28;20535;-83
2022/06/10 12:04:11;;;;;;;1.80;1.00;;;24.20;77.30;;;;;;5080917;28;20966;-84
2022/06/10 12:06:45;;;;;;;1.60;0.90;;;24.30;75.80;;;;;;5064909;28;20428;-84
2022/06/10 12:09:24;;;;;;;3.90;1.00;;;24.50;76.20;;;;;;5086652;28;20470;-83
2022/06/10 12:12:05;;;;;;;2.60;0.77;;;24.50;75.70;;;;;;5086814;28;20538;-82
2022/06/10 12:14:37;;;;;;;2.97;1.13;;;24.80;74.30;;;;;;5091956;28;20439;-82
2022/06/10 12:17:28;;;;;;;2.20;1.20;;;24.90;73.90;;;;;;5076890;28;20447;-82
2022/06/10 12:20:13;;;;;;;3.50;1.10;;;25.10;73.60;;;;;;5071850;28;20476;-82
2022/06/10 12:22:40;;;;;;;1.07;0.70;;;25.30;72.10;;;;;;5076120;28;20435;-84
2022/06/10 12:25:49;;;;;;;1.83;0.93;;;25.40;70.90;;;;;;5075347;28;20459;-84
2022/06/10 12:28:25;;;;;;;3.37;0.80;;;25.10;71.10;;;;;;5053282;28;20455;-84
2022/06/10 12:31:27;;;;;;;1.23;0.90;;;25.20;71.80;;;;;;5077051;28;20486;-84
2022/06/10 12:34:01;;;;;;;3.57;1.00;;;25.00;72.50;;;;;;5063527;28;20474;-82
2022/06/10 12:36:41;;;;;;;4.30;1.20;;;25.00;72.90;;;;;;5076325;28;20440;-81
2022/06/10 12:39:19;;;;;;;3.60;1.20;;;25.00;72.90;;;;;;5076640;28;20436;-83
2022/06/10 12:41:50;;;;;;;2.60;1.47;;;25.90;70.30;;;;;;5061404;28;20470;-82
2022/06/10 12:44:22;;;;;;;3.07;1.20;;;26.60;67.50;;;;;;5078379;28;20450;-82
2022/06/10 12:47:07;;;;;;;3.63;1.33;;;26.60;67.60;;;;;;5080153;28;20444;-82
2022/06/10 12:49:42;;;;;;;2.10;1.30;;;26.70;66.60;;;;;;5082925;28;20443;-82
2022/06/10 12:52:47;;;;;;;4.63;1.80;;;26.60;66.00;;;;;;5087375;28;20459;-81
2022/06/10 12:55:25;;;;;;;1.37;1.27;;;26.50;66.30;;;;;;5098315;28;20450;-84
2022/06/10 12:57:53;;;;;;;3.33;1.27;;;26.30;66.80;;;;;;5099750;28;20661;-81
2022/06/10 13:00:22;;;;;;;4.10;1.50;;;26.00;67.70;;;;;;5100524;28;20469;-82
2022/06/10 13:02:59;;;;;;;2.03;1.00;;;25.50;69.40;;;;;;5099722;28;20451;-81
2022/06/10 13:05:35;;;;;;;3.53;1.30;;;25.80;68.20;;;;;;5098672;28;20465;-81
2022/06/10 13:08:02;;;;;;;1.33;1.23;;;25.70;68.70;;;;;;5098781;28;20468;-84
2022/06/10 13:10:33;;;;;;;2.30;1.10;;;25.50;69.60;;;;;;5083343;28;20980;-83
2022/06/10 13:13:23;;;;;;;1.80;1.20;;;25.60;69.60;;;;;;5081397;28;20454;-81
2022/06/10 13:16:40;;;;;;;3.53;1.67;;;25.60;69.90;;;;;;5083366;28;20467;-81
2022/06/10 13:19:29;;;;;;;3.13;1.43;;;25.60;69.50;;;;;;5050366;28;20509;-83
2022/06/10 13:21:59;;;;;;;3.30;1.27;;;25.20;70.40;;;;;;5075860;28;20852;-82
2022/06/10 13:24:27;;;;;;;4.07;2.00;;;24.80;71.60;;;;;;5070346;28;20455;-82
2022/06/10 13:26:54;;;;;;;3.67;1.10;;;25.50;69.70;;;;;;5079211;28;20478;-82
2022/06/10 13:29:22;;;;;;;5.43;1.40;;;25.70;67.90;;;;;;5073718;28;20463;-83
2022/06/10 13:31:56;;;;;;;2.83;1.40;;;25.40;69.10;;;;;;5078835;28;20511;-82
2022/06/10 13:34:38;;;;;;;1.73;1.30;;;25.30;69.80;;;;;;5076057;28;20455;-83
2022/06/10 13:37:23;;;;;;;3.60;1.60;;;25.50;69.10;;;;;;5077309;28;20543;-83
2022/06/10 13:39:52;;;;;;;2.10;1.60;;;25.70;68.30;;;;;;5069309;28;20435;-83
2022/06/10 13:42:29;;;;;;;2.10;1.20;;;25.60;69.10;;;;;;5077790;28;20435;-82
2022/06/10 13:45:10;;;;;;;3.30;1.30;;;25.30;69.50;;;;;;5075941;28;20993;-82